ENSE

Snorre A Oilp

Snorre A Oilp, Norway
METAR ENSE 151920Z AUTO 36023KT 9999NDV FEW036/// 05/M02 Q1000 W///S5
Observed Flight Rules
Dec-15 @ 19:20 UTC (35 minutes ago)
Wind Clouds
360° at 23 knots
  • Few at 3,600' AGL
Temperatures Readings
Current 5°C / 41°F
Dewpoint -2°C / 28°F
Humidity 61%
Altimeter 29.53" Hg
Pressure 1000 hPa
Elevation 10
METAR ENSE 151920Z AUTO 36023KT 9999NDV FEW036/// 05/M02 Q1000 W///S5
Observed Flight Rules
Dec-15 @ 19:20 UTC
(35 minutes ago)
Wind
360° at 23 knots
Clouds
  • Few at 3,600' AGL
Temperature Dewpoint
5°C / 41°F -2°C / 28°F
Humidity Altimeter Pressure
61% 29.53" Hg 1000 hPa